Time;durP1;ratioP1;P1;durP2;ratioP2;P2;SDS_P1;SDS_P2;PMS_P1;PMS_P2;Temp;Humidity;BMP_temperature;BMP_pressure;BME280_temperature;BME280_humidity;BME280_pressure;Samples;Min_cycle;Max_cycle;Signal;HPM_P1;HPM_P2
2022/02/09 00:04:20;;;;;;;17.02;8.18;;;9.20;99.90;;;;;;5047875;28;20167;-62
2022/02/09 00:07:03;;;;;;;18.38;7.70;;;9.20;99.90;;;;;;5047821;28;20138;-64
2022/02/09 00:09:28;;;;;;;17.83;8.07;;;9.20;99.90;;;;;;5047615;28;20032;-65
2022/02/09 00:14:32;;;;;;;;;;;9.20;99.90;;;;;;5056019;28;20025;-65
2022/02/09 01:51:12;;;;;;;14.52;6.25;;;;;;;;;;5052783;28;20117;-65
2022/02/09 01:56:23;;;;;;;16.42;6.78;;;;;;;;;;5052855;28;20075;-63
2022/02/09 01:58:50;;;;;;;14.45;6.88;;;;;;;;;;5052774;28;20029;-65
2022/02/09 02:01:16;;;;;;;16.92;6.90;;;;;;;;;;5052650;28;20539;-65
2022/02/09 02:03:44;;;;;;;14.93;6.10;;;;;;;;;;5052516;28;20051;-65
2022/02/09 02:06:12;;;;;;;16.42;6.97;;;;;;;;;;5052305;28;20033;-65
2022/02/09 02:08:37;;;;;;;15.40;6.43;;;;;;;;;;5052609;28;20049;-64
2022/02/09 02:11:13;;;;;;;15.57;6.97;;;;;;;;;;5051854;28;20059;-64
2022/02/09 02:18:44;;;;;;;15.68;6.90;;;;;;;;;;5052700;28;20036;-63
2022/02/09 02:21:31;;;;;;;16.95;6.97;;;;;;;;;;5052390;28;20072;-64
2022/02/09 02:27:03;;;;;;;15.65;6.60;;;;;;;;;;5052365;28;20033;-63
2022/02/09 03:12:11;;;;;;;16.75;8.02;;;;;;;;;;5064421;23;20099;-56
2022/02/09 03:14:46;;;;;;;19.15;7.50;;;;;;;;;;5051602;28;20033;-59
2022/02/09 03:17:18;;;;;;;15.90;8.40;;;;;;;;;;5052578;28;20027;-58
2022/02/09 03:19:54;;;;;;;17.13;8.80;;;;;;;;;;5051346;28;20505;-59
2022/02/09 03:22:28;;;;;;;17.55;9.30;;;;;;;;;;5051782;28;20075;-58
2022/02/09 03:57:23;;;;;;;16.25;8.52;;;;;;;;;;5052046;28;20021;-56
2022/02/09 03:59:15;;;;;;;15.68;7.85;;;;;;;;;;5046778;28;20025;-59
2022/02/09 04:01:43;;;;;;;15.13;7.78;;;;;;;;;;5051949;28;20052;-56
2022/02/09 04:04:09;;;;;;;15.43;7.93;;;;;;;;;;5051450;28;20017;-56
2022/02/09 04:06:37;;;;;;;15.27;7.70;;;;;;;;;;5052253;28;20043;-58
2022/02/09 04:09:06;;;;;;;16.57;8.03;;;;;;;;;;5051951;28;20501;-59
2022/02/09 04:11:43;;;;;;;15.68;7.10;;;;;;;;;;5054601;28;20024;-54
2022/02/09 04:39:19;;;;;;;15.30;7.45;;;;;;;;;;5075797;28;20093;-56
2022/02/09 04:51:59;;;;;;;16.92;8.25;;;;;;;;;;5075532;28;20097;-57
2022/02/09 04:54:42;;;;;;;16.50;7.50;;;;;;;;;;5074796;28;20024;-60
2022/02/09 04:57:16;;;;;;;15.38;7.72;;;;;;;;;;5075359;28;20438;-55
2022/02/09 04:59:56;;;;;;;15.45;7.72;;;;;;;;;;5075460;28;20036;-51
2022/02/09 05:24:03;;;;;;;18.98;9.15;;;8.80;99.90;;;;;;5074772;28;20103;-58
2022/02/09 05:29:03;;;;;;;17.25;8.35;;;8.80;99.90;;;;;;5080861;28;20111;-60
2022/02/09 05:31:29;;;;;;;16.38;8.38;;;8.90;99.90;;;;;;5074603;28;20110;-56
2022/02/09 05:33:54;;;;;;;16.15;8.13;;;8.80;99.90;;;;;;5074436;28;20472;-59
2022/02/09 05:36:20;;;;;;;16.55;8.73;;;8.80;99.90;;;;;;5074553;28;20596;-58
2022/02/09 05:38:46;;;;;;;17.65;8.13;;;8.90;99.90;;;;;;5074470;28;20459;-59
2022/02/09 05:41:12;;;;;;;17.17;9.05;;;8.90;99.90;;;;;;5074462;28;20095;-62
2022/02/09 05:43:38;;;;;;;17.67;9.02;;;8.90;99.90;;;;;;5073931;28;20058;-60
2022/02/09 05:54:01;;;;;;;18.77;10.73;;;8.70;99.90;;;;;;5073895;28;20032;-61
2022/02/09 05:56:44;;;;;;;18.58;11.05;;;8.50;99.90;;;;;;5074048;28;20520;-56
2022/02/09 06:01:39;;;;;;;20.88;13.15;;;8.30;99.90;;;;;;5074538;28;20056;-59
2022/02/09 06:04:05;;;;;;;20.70;12.82;;;8.20;99.90;;;;;;5073622;28;20082;-57
2022/02/09 06:06:31;;;;;;;21.80;13.00;;;8.20;99.90;;;;;;5056053;28;20499;-56
2022/02/09 06:08:57;;;;;;;23.20;14.07;;;8.20;99.90;;;;;;5055535;28;20025;-55
2022/02/09 06:11:30;;;;;;;23.25;14.02;;;8.20;99.90;;;;;;5073905;28;20027;-56
2022/02/09 06:21:59;;;;;;;23.75;15.25;;;8.30;99.90;;;;;;5073565;28;20059;-62
2022/02/09 06:24:25;;;;;;;23.17;14.23;;;8.30;99.90;;;;;;5073114;28;20552;-58
2022/02/09 06:26:51;;;;;;;24.55;15.27;;;8.30;99.90;;;;;;5073098;28;20112;-60
2022/02/09 06:29:17;;;;;;;25.13;15.75;;;8.30;99.90;;;;;;5073249;28;20465;-61
2022/02/09 06:31:44;;;;;;;23.45;15.00;;;8.30;99.90;;;;;;5073427;28;20036;-59
2022/02/09 06:34:12;;;;;;;22.35;14.13;;;8.30;99.90;;;;;;5072903;28;20021;-53
2022/02/09 06:36:42;;;;;;;20.75;13.65;;;8.30;99.90;;;;;;5073135;28;20045;-56
2022/02/09 06:39:09;;;;;;;19.92;12.55;;;8.20;99.90;;;;;;5072977;28;20023;-58
2022/02/09 06:41:35;;;;;;;20.98;12.50;;;8.20;99.90;;;;;;5072660;28;20044;-58
2022/02/09 06:44:02;;;;;;;20.25;14.15;;;8.20;99.90;;;;;;5072579;28;20055;-59
2022/02/09 06:46:32;;;;;;;20.20;13.35;;;8.20;99.90;;;;;;5054527;28;20136;-61
2022/02/09 06:49:03;;;;;;;19.75;13.63;;;8.20;99.90;;;;;;5072232;28;20491;-60
2022/02/09 06:51:32;;;;;;;21.63;13.65;;;8.20;99.90;;;;;;5072106;28;20079;-58
2022/02/09 06:54:03;;;;;;;21.15;13.95;;;8.10;99.90;;;;;;5071940;28;20031;-59
2022/02/09 07:01:36;;;;;;;19.38;12.05;;;8.20;99.90;;;;;;5067612;28;20702;-59
2022/02/09 07:04:01;;;;;;;17.38;10.25;;;8.20;99.90;;;;;;5066119;28;20028;-61
2022/02/09 07:06:27;;;;;;;17.65;10.20;;;8.20;99.90;;;;;;5065997;28;20035;-60
2022/02/09 07:08:52;;;;;;;19.23;10.05;;;8.20;99.90;;;;;;5054164;28;20028;-60
2022/02/09 07:11:18;;;;;;;16.40;9.25;;;8.20;99.90;;;;;;5072676;28;20415;-60
2022/02/09 07:13:43;;;;;;;17.52;8.98;;;8.30;99.90;;;;;;5055281;28;20032;-59
2022/02/09 07:16:09;;;;;;;16.13;8.60;;;8.30;99.90;;;;;;5072203;28;20057;-53
2022/02/09 07:18:37;;;;;;;16.45;8.63;;;8.30;99.90;;;;;;5071529;28;20024;-58
2022/02/09 07:21:09;;;;;;;16.30;8.52;;;8.40;99.90;;;;;;5072239;28;20411;-58
2022/02/09 07:23:45;;;;;;;17.73;8.43;;;8.30;99.90;;;;;;5072324;28;20391;-60
2022/02/09 07:26:14;;;;;;;17.65;8.57;;;8.30;99.90;;;;;;5071939;28;20017;-60
2022/02/09 07:28:41;;;;;;;19.25;8.48;;;8.30;99.90;;;;;;5072052;28;20086;-59
2022/02/09 07:31:08;;;;;;;17.00;8.90;;;8.30;99.90;;;;;;5071754;28;20028;-59
2022/02/09 07:33:44;;;;;;;16.85;8.88;;;8.30;99.90;;;;;;5071953;28;20028;-60
2022/02/09 07:36:11;;;;;;;16.40;9.18;;;8.20;99.90;;;;;;5071932;28;20027;-62
2022/02/09 07:38:37;;;;;;;17.80;10.32;;;8.20;99.90;;;;;;5072060;28;20032;-59
2022/02/09 07:41:03;;;;;;;18.30;10.30;;;8.00;99.90;;;;;;5054050;28;20095;-56
2022/02/09 07:43:41;;;;;;;18.30;10.18;;;8.00;99.90;;;;;;5072293;28;20425;-61
2022/02/09 07:48:59;;;;;;;17.58;9.77;;;;;;;;;;5072020;28;20111;-60
2022/02/09 07:56:24;;;;;;;16.20;7.70;;;;;;;;;;5071137;28;20373;-58
2022/02/09 07:58:50;;;;;;;16.45;7.75;;;;;;;;;;5070624;28;20028;-58
2022/02/09 08:01:16;;;;;;;15.25;8.20;;;;;;;;;;5071419;28;20548;-55
2022/02/09 08:03:42;;;;;;;15.48;7.80;;;;;;;;;;5071271;28;20095;-59
2022/02/09 08:06:11;;;;;;;15.35;7.55;;;;;;;;;;5071068;28;20020;-60
2022/02/09 08:08:41;;;;;;;16.20;8.10;;;;;;;;;;5068761;28;20035;-59
2022/02/09 08:34:54;;;;;;;16.88;8.40;;;;;;;;;;5071191;28;20029;-59
2022/02/09 08:37:20;;;;;;;15.30;7.13;;;;;;;;;;5070274;28;20108;-56
2022/02/09 08:39:48;;;;;;;18.48;8.65;;;;;;;;;;5070747;28;20422;-62
2022/02/09 08:42:14;;;;;;;17.38;8.60;;;;;;;;;;5070937;28;20021;-57
2022/02/09 08:44:40;;;;;;;18.55;8.35;;;;;;;;;;5071297;28;20035;-59
2022/02/09 08:47:07;;;;;;;16.58;8.88;;;;;;;;;;5053478;28;20031;-56
2022/02/09 08:49:33;;;;;;;17.67;9.05;;;;;;;;;;5071352;28;20028;-61
2022/02/09 08:52:00;;;;;;;16.42;9.05;;;;;;;;;;5053007;28;20029;-59
2022/02/09 08:54:27;;;;;;;17.80;10.00;;;;;;;;;;5070927;28;20051;-57
2022/02/09 08:56:54;;;;;;;16.90;9.55;;;;;;;;;;5053309;28;20021;-58
2022/02/09 08:59:26;;;;;;;17.80;9.27;;;;;;;;;;5071552;28;20032;-57
2022/02/09 09:01:57;;;;;;;17.90;10.10;;;;;;;;;;5053239;28;20036;-59
2022/02/09 09:04:26;;;;;;;19.73;10.05;;;;;;;;;;5071049;28;20073;-57
2022/02/09 09:06:59;;;;;;;17.65;9.40;;;;;;;;;;5053033;28;20032;-61
2022/02/09 09:09:52;;;;;;;18.67;10.27;;;;;;;;;;5053925;28;20028;-58
2022/02/09 10:02:22;;;;;;;17.75;8.80;;;;;;;;;;5069363;28;20047;-65
2022/02/09 10:05:07;;;;;;;19.33;9.75;;;;;;;;;;5056722;28;20038;-64
2022/02/09 10:32:59;;;;;;;18.23;10.13;;;;;;;;;;5009512;28;20034;-56
2022/02/09 10:35:32;;;;;;;16.95;8.40;;;;;;;;;;5046188;28;20443;-58
2022/02/09 10:38:01;;;;;;;19.52;9.48;;;;;;;;;;5051901;28;20020;-59
2022/02/09 10:40:33;;;;;;;18.17;8.80;;;;;;;;;;5059309;28;21405;-58
2022/02/09 10:43:02;;;;;;;19.15;10.20;;;;;;;;;;5060470;28;20070;-58
2022/02/09 10:45:33;;;;;;;;;;;;;;;;;;5059973;28;20021;-57
2022/02/09 10:48:00;;;;;;;20.85;10.93;;;;;;;;;;5061421;28;20012;-57
2022/02/09 10:50:33;;;;;;;22.13;11.77;;;;;;;;;;5067271;28;20031;-57
2022/02/09 10:53:01;;;;;;;21.48;11.93;;;;;;;;;;5058100;28;20514;-57
2022/02/09 10:55:36;;;;;;;20.65;10.80;;;;;;;;;;5051259;28;20025;-58
2022/02/09 10:58:05;;;;;;;19.52;11.43;;;;;;;;;;5071458;28;20016;-55
2022/02/09 11:00:32;;;;;;;20.55;11.55;;;;;;;;;;5057198;28;20048;-62
2022/02/09 11:02:58;;;;;;;22.42;11.85;;;;;;;;;;5051022;28;20496;-59
2022/02/09 11:05:25;;;;;;;21.02;11.45;;;;;;;;;;5050687;28;20028;-63
2022/02/09 11:07:52;;;;;;;20.30;11.30;;;;;;;;;;5050951;28;20032;-62
2022/02/09 11:10:18;;;;;;;21.98;12.80;;;;;;;;;;5055935;28;20029;-62
2022/02/09 11:12:45;;;;;;;21.65;12.68;;;;;;;;;;5050366;28;20079;-61
2022/02/09 11:15:12;;;;;;;20.60;14.07;;;;;;;;;;5069574;28;20031;-60
2022/02/09 11:17:46;;;;;;;23.05;14.45;;;;;;;;;;5059808;28;20025;-61
2022/02/09 11:20:12;;;;;;;21.08;14.02;;;;;;;;;;5059619;28;20363;-62
2022/02/09 11:22:45;;;;;;;23.38;14.98;;;;;;;;;;5050882;28;20029;-61
2022/02/09 11:25:19;;;;;;;22.58;14.30;;;;;;;;;;5068440;28;20365;-61
2022/02/09 11:27:58;;;;;;;22.00;13.80;;;;;;;;;;5064869;28;20047;-61
2022/02/09 11:30:35;;;;;;;23.38;14.43;;;;;;;;;;5053747;28;20433;-59
2022/02/09 11:33:19;;;;;;;22.90;15.30;;;;;;;;;;5050310;28;20147;-60
2022/02/09 11:36:04;;;;;;;23.25;14.40;;;;;;;;;;5051105;28;20029;-63
2022/02/09 11:38:37;;;;;;;25.15;16.75;;;;;;;;;;5067504;28;20380;-65
2022/02/09 11:41:20;;;;;;;21.55;16.05;;;;;;;;;;5068737;28;20017;-65
2022/02/09 11:43:57;;;;;;;27.88;24.40;;;;;;;;;;5070694;28;20044;-67
2022/02/09 11:46:51;;;;;;;29.77;26.88;;;;;;;;;;5071163;28;20021;-65
2022/02/09 11:49:57;;;;;;;27.55;24.73;;;;;;;;;;5069404;28;20397;-63
2022/02/09 11:55:36;;;;;;;26.48;23.77;;;;;;;;;;5073352;28;20108;-63
2022/02/09 12:09:11;;;;;;;21.48;19.17;;;;;;;;;;5030754;28;20141;-63
2022/02/09 12:11:40;;;;;;;;;;;;;;;;;;5013204;28;20059;-65
2022/02/09 12:19:14;;;;;;;22.85;17.05;;;;;;;;;;5068407;28;20660;-65
2022/02/09 12:24:21;;;;;;;23.13;16.60;;;;;;;;;;5071904;28;20067;-65
2022/02/09 12:26:58;;;;;;;20.75;16.83;;;;;;;;;;5070167;28;20025;-61
2022/02/09 12:29:30;;;;;;;21.15;17.20;;;;;;;;;;5070785;28;20065;-66
2022/02/09 12:31:56;;;;;;;22.15;16.27;;;;;;;;;;5070243;28;20431;-65
2022/02/09 12:34:26;;;;;;;21.15;16.92;;;;;;;;;;5069883;28;20048;-64
2022/02/09 12:36:55;;;;;;;22.90;15.15;;;;;;;;;;5070203;28;20025;-65
2022/02/09 12:39:22;;;;;;;24.27;16.58;;;;;;;;;;5070325;28;20054;-66
2022/02/09 12:41:49;;;;;;;21.60;15.80;;;;;;;;;;5069853;28;20028;-65
2022/02/09 12:44:19;;;;;;;20.30;14.70;;;;;;;;;;5069375;28;20081;-65
2022/02/09 12:46:45;;;;;;;20.45;15.30;;;;;;;;;;5068502;28;20392;-65
2022/02/09 12:49:13;;;;;;;18.20;12.90;;;;;;;;;;5069651;28;20032;-66
2022/02/09 12:51:40;;;;;;;20.30;13.90;;;;;;;;;;5069729;28;20468;-65
2022/02/09 12:54:07;;;;;;;20.00;13.20;;;;;;;;;;5071234;28;20033;-65
2022/02/09 12:56:40;;;;;;;17.65;11.52;;;;;;;;;;5073524;28;20012;-64
2022/02/09 12:59:11;;;;;;;17.67;10.88;;;;;;;;;;5073770;28;20020;-64
2022/02/09 13:01:44;;;;;;;17.17;11.10;;;;;;;;;;4706060;28;10001195;-66
2022/02/09 13:04:10;;;;;;;17.73;10.90;;;;;;;;;;5050773;28;20037;-66
2022/02/09 13:06:36;;;;;;;17.35;11.50;;;;;;;;;;5043429;28;20132;-66
2022/02/09 13:09:02;;;;;;;18.65;10.30;;;;;;;;;;5053232;28;20044;-64
2022/02/09 13:11:31;;;;;;;16.50;9.50;;;;;;;;;;5052572;28;20087;-65
2022/02/09 13:14:24;;;;;;;18.13;9.40;;;;;;;;;;5052314;28;20040;-65
2022/02/09 13:17:11;;;;;;;15.40;7.55;;;;;;;;;;5052060;28;20032;-65
2022/02/09 14:17:34;;;;;;;;;;;;;;;;;;;;;
2022/02/09 14:57:13;;;;;;;15.85;7.43;;;;;;;;;;5071867;28;20086;-66
2022/02/09 15:02:10;;;;;;;17.40;7.93;;;8.00;99.90;;;;;;5071362;28;20104;-67
2022/02/09 15:07:30;;;;;;;15.82;8.00;;;9.90;99.90;;;;;;5052094;28;20040;-64
2022/02/09 15:10:04;;;;;;;17.27;7.22;;;9.90;99.90;;;;;;5052112;28;20075;-65
2022/02/09 15:12:44;;;;;;;16.38;7.35;;;9.90;99.90;;;;;;5066510;23;20100;-58
2022/02/09 15:16:01;;;;;;;16.92;7.60;;;9.90;99.90;;;;;;5091763;28;20039;-58
2022/02/09 15:21:15;;;;;;;16.33;8.00;;;9.90;99.90;;;;;;5088782;28;20043;-58
2022/02/09 15:23:29;;;;;;;18.52;8.30;;;9.90;99.90;;;;;;5087428;28;20472;-59
2022/02/09 15:25:59;;;;;;;15.05;7.18;;;9.90;99.90;;;;;;5089079;28;20016;-59
2022/02/09 15:28:24;;;;;;;16.13;7.50;;;10.00;99.90;;;;;;5088603;28;20066;-54
2022/02/09 15:31:06;;;;;;;18.58;8.18;;;9.90;99.90;;;;;;5089225;28;20019;-59
2022/02/09 15:33:48;;;;;;;15.48;6.78;;;9.90;99.90;;;;;;5097447;28;20028;-59
2022/02/09 15:36:17;;;;;;;15.15;7.10;;;9.90;99.90;;;;;;5077740;28;20022;-55
2022/02/09 15:38:46;;;;;;;16.70;7.75;;;9.90;99.90;;;;;;4753191;28;10000190;-58
2022/02/09 16:25:59;;;;;;;15.98;6.72;;;9.60;99.90;;;;;;5109002;28;20126;-59
2022/02/09 16:44:18;;;;;;;16.60;7.90;;;9.60;99.90;;;;;;5097435;28;20016;-59
2022/02/09 16:47:01;;;;;;;16.50;7.85;;;9.60;99.90;;;;;;5092887;28;20024;-59
2022/02/09 16:49:52;;;;;;;18.10;8.50;;;9.60;99.90;;;;;;5106626;28;20037;-60
2022/02/09 16:52:24;;;;;;;18.55;7.57;;;9.60;99.90;;;;;;5094844;28;20740;-59
2022/02/09 17:19:01;;;;;;;17.10;7.68;;;9.40;99.90;;;;;;5113088;28;20395;-61
2022/02/09 17:21:30;;;;;;;18.52;7.55;;;9.30;99.90;;;;;;5112804;28;20031;-61
2022/02/09 17:24:02;;;;;;;15.43;6.95;;;9.30;99.90;;;;;;5108251;28;20044;-59
2022/02/09 17:26:30;;;;;;;19.58;8.25;;;9.30;99.90;;;;;;5090852;28;20697;-57
2022/02/09 17:29:02;;;;;;;17.33;8.25;;;9.30;99.90;;;;;;5073844;28;20129;-58
2022/02/09 17:39:17;;;;;;;18.45;8.27;;;9.20;99.90;;;;;;5091601;28;20032;-60
2022/02/09 17:58:07;;;;;;;19.15;9.60;;;;;;;;;;5071486;28;20131;-59
2022/02/09 18:00:33;;;;;;;18.58;9.35;;;;;;;;;;5071795;28;20028;-61
2022/02/09 18:02:59;;;;;;;18.27;9.55;;;;;;;;;;5079166;28;20100;-62
2022/02/09 18:05:49;;;;;;;21.35;11.18;;;;;;;;;;5090466;28;20036;-60
2022/02/09 18:08:36;;;;;;;19.77;10.05;;;;;;;;;;5078565;28;20032;-59
2022/02/09 18:33:09;;;;;;;22.58;11.23;;;;;;;;;;5074015;28;20400;-60
2022/02/09 18:56:53;;;;;;;20.50;10.82;;;;;;;;;;5096685;28;20212;-60
2022/02/09 19:04:47;;;;;;;20.50;11.35;;;;;;;;;;5113380;28;20441;-60
2022/02/09 19:15:47;;;;;;;19.95;10.82;;;;;;;;;;5113043;28;20083;-60
2022/02/09 19:18:32;;;;;;;20.27;10.65;;;;;;;;;;5074380;28;20087;-58
2022/02/09 19:26:59;;;;;;;21.92;11.48;;;;;;;;;;5081247;28;20055;-62
2022/02/09 19:32:57;;;;;;;21.95;10.88;;;;;;;;;;5072146;28;20036;-60
2022/02/09 19:44:29;;;;;;;20.30;11.00;;;;;;;;;;5072319;28;20029;-60
2022/02/09 19:54:12;;;;;;;20.42;11.07;;;;;;;;;;5100366;28;20029;-58
2022/02/09 19:56:41;;;;;;;21.20;11.18;;;;;;;;;;5094593;28;20135;-60
2022/02/09 19:59:16;;;;;;;21.35;11.15;;;;;;;;;;5112463;28;20040;-61
2022/02/09 20:01:43;;;;;;;18.50;9.63;;;;;;;;;;5094587;28;20051;-57
2022/02/09 20:04:09;;;;;;;21.05;11.02;;;;;;;;;;4386199;28;10000763;-60
2022/02/09 20:06:36;;;;;;;20.50;10.25;;;;;;;;;;5051268;28;20036;-60
2022/02/09 20:09:02;;;;;;;22.25;10.35;;;;;;;;;;5068864;28;20033;-61
2022/02/09 20:11:28;;;;;;;18.75;10.07;;;;;;;;;;5069165;28;20189;-61
2022/02/09 20:13:54;;;;;;;21.48;11.27;;;;;;;;;;5050340;28;20078;-61
2022/02/09 20:16:22;;;;;;;22.42;10.38;;;;;;;;;;5051038;28;20054;-59
2022/02/09 20:18:48;;;;;;;21.17;11.60;;;;;;;;;;5068714;28;20024;-59
2022/02/09 20:21:16;;;;;;;21.83;10.65;;;;;;;;;;5068999;28;20028;-60
2022/02/09 20:23:42;;;;;;;23.02;11.73;;;;;;;;;;5068738;28;20484;-60
2022/02/09 20:26:11;;;;;;;20.50;11.48;;;;;;;;;;5068673;28;20028;-60
2022/02/09 20:28:40;;;;;;;;;;;;;;;;;;5069497;28;20040;-59
2022/02/09 20:31:11;;;;;;;20.80;10.63;;;;;;;;;;5068973;28;19904;-61
2022/02/09 20:33:43;;;;;;;19.63;10.93;;;;;;;;;;5052719;28;20381;-58
2022/02/09 20:36:12;;;;;;;24.67;11.95;;;;;;;;;;5071706;28;20089;-60
2022/02/09 20:38:39;;;;;;;19.75;10.70;;;;;;;;;;5071926;28;20027;-59
2022/02/09 20:41:08;;;;;;;22.17;10.52;;;;;;;;;;5071661;28;20029;-61
2022/02/09 20:43:42;;;;;;;22.73;11.13;;;;;;;;;;5071328;28;20023;-60
2022/02/09 20:46:08;;;;;;;21.80;11.93;;;;;;;;;;5071189;28;20029;-60
2022/02/09 20:48:34;;;;;;;22.27;11.23;;;;;;;;;;5071560;28;20039;-59
2022/02/09 20:51:01;;;;;;;21.02;11.52;;;;;;;;;;5071639;28;20036;-59
2022/02/09 20:53:28;;;;;;;21.90;11.13;;;;;;;;;;5090315;28;20534;-58
2022/02/09 20:55:54;;;;;;;21.05;11.10;;;;;;;;;;5111652;28;20540;-61
2022/02/09 20:58:21;;;;;;;20.70;11.02;;;;;;;;;;5111614;28;20115;-61
2022/02/09 21:01:01;;;;;;;20.10;11.38;;;;;;;;;;5112136;28;20080;-60
2022/02/09 21:03:44;;;;;;;18.73;10.27;;;;;;;;;;5079134;28;20025;-61
2022/02/09 21:54:22;;;;;;;20.40;10.77;;;;;;;;;;5027311;28;20026;-58
2022/02/09 21:57:00;;;;;;;20.25;10.60;;;;;;;;;;5085957;28;20510;-59
2022/02/09 22:00:12;;;;;;;20.48;10.32;;;;;;;;;;5103108;28;20022;-58
2022/02/09 22:16:47;;;;;;;23.17;10.52;;;;;;;;;;5094140;28;20039;-57
2022/02/09 22:45:30;;;;;;;21.23;10.48;;;;;;;;;;5085176;28;20036;-61
2022/02/09 22:47:00;;;;;;;21.60;11.73;;;;;;;;;;5094023;28;20399;-59
2022/02/09 22:56:47;;;;;;;20.95;10.48;;;;;;;;;;5094640;28;20039;-62
2022/02/09 22:59:24;;;;;;;21.38;11.18;;;;;;;;;;5094438;28;20020;-59
2022/02/09 23:01:56;;;;;;;20.50;11.93;;;;;;;;;;5094242;28;20024;-60
2022/02/09 23:04:52;;;;;;;20.48;9.65;;;;;;;;;;5093897;28;20047;-58
2022/02/09 23:10:03;;;;;;;20.13;11.18;;;;;;;;;;5091829;28;20399;-55
2022/02/09 23:12:44;;;;;;;21.15;11.75;;;;;;;;;;5092129;28;20056;-57
2022/02/09 23:23:17;;;;;;;22.95;11.18;;;;;;;;;;5080118;28;20503;-58
2022/02/09 23:58:41;;;;;;;21.75;11.80;;;;;;;;;;5091899;28;20036;-59
